createdAt,value
2018-09-15T00:00:59.121Z,17.70
2018-09-15T00:03:27.109Z,17.80
2018-09-15T00:05:54.740Z,17.80
2018-09-15T00:08:22.450Z,17.80
2018-09-15T00:10:50.105Z,17.80
2018-09-15T00:13:18.456Z,17.80
2018-09-15T00:15:46.104Z,17.90
2018-09-15T00:18:15.303Z,17.80
2018-09-15T00:20:42.931Z,17.90
2018-09-15T00:23:11.172Z,17.90
2018-09-15T00:25:39.428Z,17.80
2018-09-15T00:28:07.177Z,17.90
2018-09-15T00:30:34.802Z,17.80
2018-09-15T00:33:02.429Z,17.80
2018-09-15T00:35:30.039Z,17.80
2018-09-15T00:37:57.736Z,17.90
2018-09-15T00:40:25.363Z,17.80
2018-09-15T00:42:53.038Z,17.80
2018-09-15T00:45:20.888Z,17.80
2018-09-15T00:47:48.521Z,17.80
2018-09-15T00:50:16.202Z,17.80
2018-09-15T00:52:43.826Z,17.70
2018-09-15T00:55:11.478Z,17.70
2018-09-15T00:57:39.207Z,17.70
2018-09-15T01:00:07.636Z,17.70
2018-09-15T01:02:35.507Z,17.60
2018-09-15T01:05:03.474Z,17.60
2018-09-15T01:07:31.127Z,17.60
2018-09-15T01:09:58.761Z,17.60
2018-09-15T01:12:26.435Z,17.70
2018-09-15T01:14:54.051Z,17.70
2018-09-15T01:17:21.713Z,17.60
2018-09-15T01:19:49.365Z,17.60
2018-09-15T01:22:17.195Z,17.60
2018-09-15T01:24:45.146Z,17.50
2018-09-15T01:27:12.863Z,17.50
2018-09-15T01:29:40.494Z,17.50
2018-09-15T01:32:08.285Z,17.50
2018-09-15T01:34:35.896Z,17.50
2018-09-15T01:37:03.759Z,17.50
2018-09-15T01:39:31.391Z,17.40
2018-09-15T01:41:59.012Z,17.40
2018-09-15T01:44:26.638Z,17.40
2018-09-15T01:46:54.350Z,17.40
2018-09-15T01:49:21.959Z,17.40
2018-09-15T01:51:49.614Z,17.40
2018-09-15T01:54:17.266Z,17.40
2018-09-15T01:56:44.891Z,17.30
2018-09-15T01:59:12.512Z,17.40
2018-09-15T02:01:40.135Z,17.30
2018-09-15T02:04:08.027Z,17.30
2018-09-15T02:06:35.797Z,17.30
2018-09-15T02:09:06.287Z,17.20
2018-09-15T02:11:34.323Z,17.30
2018-09-15T02:14:02.066Z,17.20
2018-09-15T02:16:29.860Z,17.10
2018-09-15T02:18:57.514Z,17.10
2018-09-15T02:21:25.330Z,17.10
2018-09-15T02:23:53.006Z,17.00
2018-09-15T02:26:20.669Z,17.00
2018-09-15T02:28:48.597Z,17.00
2018-09-15T02:31:16.314Z,16.90
2018-09-15T02:33:43.956Z,16.90
2018-09-15T02:36:11.607Z,16.80
2018-09-15T02:38:39.392Z,16.90
2018-09-15T02:41:07.058Z,16.80
2018-09-15T02:43:34.738Z,16.70
2018-09-15T02:46:02.418Z,16.70
2018-09-15T02:48:30.140Z,16.60
2018-09-15T02:50:57.766Z,16.50
2018-09-15T02:53:25.388Z,16.50
2018-09-15T02:55:53.127Z,16.40
2018-09-15T02:58:20.730Z,18.00
2018-09-15T03:00:48.471Z,16.30
2018-09-15T03:03:16.102Z,16.30
2018-09-15T03:05:43.715Z,16.30
2018-09-15T03:08:11.319Z,16.40
2018-09-15T03:10:39.010Z,16.30
2018-09-15T03:13:06.621Z,16.40
2018-09-15T03:15:34.235Z,16.40
2018-09-15T03:18:01.871Z,16.40
2018-09-15T03:20:29.491Z,16.30
2018-09-15T03:22:57.127Z,16.30
2018-09-15T03:25:24.747Z,16.30
2018-09-15T03:27:52.350Z,16.30
2018-09-15T03:30:19.940Z,16.30
2018-09-15T03:32:47.536Z,16.30
2018-09-15T03:35:15.155Z,16.30
2018-09-15T03:37:42.789Z,16.30
2018-09-15T03:40:10.419Z,16.30
2018-09-15T03:42:38.048Z,16.40
2018-09-15T03:45:05.748Z,16.20
2018-09-15T03:47:33.397Z,16.20
2018-09-15T03:50:01.034Z,16.30
2018-09-15T03:52:28.655Z,16.20
2018-09-15T03:54:57.239Z,16.20
2018-09-15T03:57:26.348Z,16.20
2018-09-15T03:59:54.020Z,16.10
2018-09-15T04:02:21.672Z,16.10
2018-09-15T04:04:49.267Z,16.10
2018-09-15T04:07:16.923Z,15.90
2018-09-15T04:09:44.583Z,15.90
2018-09-15T04:12:12.229Z,15.90
2018-09-15T04:14:39.927Z,15.80
2018-09-15T04:17:07.571Z,15.80
2018-09-15T04:19:35.230Z,16.00
2018-09-15T04:22:02.859Z,16.00
2018-09-15T04:24:30.491Z,16.20
2018-09-15T04:26:58.129Z,16.20
2018-09-15T04:29:25.730Z,16.10
2018-09-15T04:31:53.335Z,16.20
2018-09-15T04:34:20.948Z,16.20
2018-09-15T04:36:48.564Z,16.30
2018-09-15T04:39:16.319Z,16.30
2018-09-15T04:41:43.973Z,16.30
2018-09-15T04:44:11.570Z,16.30
2018-09-15T04:46:39.334Z,16.30
2018-09-15T04:49:06.982Z,16.30
2018-09-15T04:51:34.724Z,16.30
2018-09-15T04:54:02.346Z,16.30
2018-09-15T04:56:29.987Z,16.40
2018-09-15T04:58:57.945Z,16.20
2018-09-15T05:01:25.605Z,16.20
2018-09-15T05:03:53.196Z,17.30
2018-09-15T05:06:20.911Z,16.10
2018-09-15T05:08:48.523Z,16.10
2018-09-15T05:11:16.143Z,16.10
2018-09-15T05:13:43.780Z,16.00
2018-09-15T05:16:11.390Z,16.00
2018-09-15T05:18:39.109Z,16.00
2018-09-15T05:21:06.726Z,15.90
2018-09-15T05:23:34.337Z,15.90
2018-09-15T05:26:01.989Z,15.90
2018-09-15T05:28:29.641Z,16.00
2018-09-15T05:30:57.283Z,16.00
2018-09-15T05:33:24.962Z,15.90
2018-09-15T05:35:52.591Z,16.00
2018-09-15T05:38:20.228Z,16.00
2018-09-15T05:40:48.634Z,16.00
2018-09-15T05:43:16.403Z,16.20
2018-09-15T05:45:44.104Z,16.30
2018-09-15T05:48:11.762Z,16.30
2018-09-15T05:50:39.472Z,16.40
2018-09-15T05:53:07.130Z,16.70
2018-09-15T05:55:34.757Z,16.80
2018-09-15T05:58:02.371Z,16.90
2018-09-15T06:00:30.109Z,16.80
2018-09-15T06:02:57.738Z,16.90
2018-09-15T06:05:25.352Z,17.00
2018-09-15T06:07:52.982Z,17.00
2018-09-15T06:10:20.604Z,17.00
2018-09-15T06:12:48.254Z,16.80
2018-09-15T06:15:15.850Z,16.90
2018-09-15T06:17:43.495Z,17.00
2018-09-15T06:20:11.190Z,17.20
2018-09-15T06:22:38.906Z,18.00
2018-09-15T06:25:06.646Z,18.60
2018-09-15T06:27:34.297Z,20.80
2018-09-15T06:30:02.036Z,22.70
2018-09-15T06:32:29.642Z,25.90
2018-09-15T06:34:57.354Z,27.80
2018-09-15T06:37:25.024Z,29.00
2018-09-15T06:39:52.675Z,29.60
2018-09-15T06:42:20.326Z,30.50
2018-09-15T06:44:47.958Z,31.90
2018-09-15T06:47:15.611Z,32.10
2018-09-15T06:49:43.279Z,33.40
2018-09-15T06:52:10.883Z,33.90
2018-09-15T06:54:38.502Z,34.20
2018-09-15T06:57:06.162Z,33.90
2018-09-15T06:59:33.791Z,33.40
2018-09-15T07:02:01.458Z,30.50
2018-09-15T07:04:29.075Z,28.30
2018-09-15T07:06:56.761Z,26.40
2018-09-15T07:09:24.379Z,25.60
2018-09-15T07:11:52.032Z,27.90
2018-09-15T07:14:19.682Z,30.80
2018-09-15T07:16:47.319Z,32.20
2018-09-15T07:19:14.933Z,33.50
2018-09-15T07:21:42.579Z,33.90
2018-09-15T07:24:10.243Z,34.20
2018-09-15T07:26:37.901Z,35.00
2018-09-15T07:29:05.699Z,35.40
2018-09-15T07:31:33.402Z,35.70
2018-09-15T07:34:01.039Z,35.90
2018-09-15T07:36:28.687Z,36.40
2018-09-15T07:38:56.350Z,36.30
2018-09-15T07:41:24.042Z,36.30
2018-09-15T07:43:51.707Z,36.90
2018-09-15T07:46:19.373Z,37.30
2018-09-15T07:48:47.038Z,36.60
2018-09-15T07:51:14.659Z,36.50
2018-09-15T07:53:42.273Z,35.10
2018-09-15T07:56:09.899Z,32.50
2018-09-15T07:58:37.542Z,31.20
2018-09-15T08:01:05.255Z,25.50
2018-09-15T08:03:32.867Z,24.00
2018-09-15T08:06:00.541Z,24.50
2018-09-15T08:08:28.165Z,24.80
2018-09-15T08:10:56.522Z,25.00
2018-09-15T08:13:24.117Z,24.90
2018-09-15T08:15:51.723Z,24.90
2018-09-15T08:18:19.419Z,23.60
2018-09-15T08:20:47.685Z,22.00
2018-09-15T08:23:15.262Z,22.90
2018-09-15T08:25:42.870Z,23.20
2018-09-15T08:28:10.505Z,22.50
2018-09-15T08:30:38.127Z,22.80
2018-09-15T08:33:05.813Z,22.20
2018-09-15T08:35:33.507Z,22.40
2018-09-15T08:38:01.131Z,22.20
2018-09-15T08:40:28.759Z,21.80
2018-09-15T08:42:56.390Z,22.30
2018-09-15T08:45:24.062Z,23.10
2018-09-15T08:47:51.846Z,23.30
2018-09-15T08:50:19.456Z,23.40
2018-09-15T08:52:47.123Z,23.80
2018-09-15T08:55:14.750Z,23.70
2018-09-15T08:57:42.364Z,23.30
2018-09-15T09:00:10.027Z,22.60
2018-09-15T09:02:37.671Z,23.40
2018-09-15T09:05:05.437Z,24.00
2018-09-15T09:07:33.086Z,24.10
2018-09-15T09:10:00.723Z,24.30
2018-09-15T09:12:28.352Z,24.30
2018-09-15T09:14:55.970Z,24.80
2018-09-15T09:17:23.677Z,23.90
2018-09-15T09:19:51.363Z,23.20
2018-09-15T09:22:18.960Z,23.50
2018-09-15T09:24:46.690Z,23.60
2018-09-15T09:27:14.343Z,23.70
2018-09-15T09:29:41.982Z,22.60
2018-09-15T09:32:09.662Z,23.00
2018-09-15T09:34:37.311Z,22.90
2018-09-15T09:37:04.962Z,22.60
2018-09-15T09:39:32.578Z,22.30
2018-09-15T09:42:00.251Z,22.00
2018-09-15T09:44:27.890Z,21.30
2018-09-15T09:46:55.850Z,21.60
2018-09-15T09:49:23.495Z,21.80
2018-09-15T09:51:51.102Z,21.90
2018-09-15T09:54:18.718Z,21.90
2018-09-15T09:56:46.391Z,22.40
2018-09-15T09:59:14.000Z,22.60
2018-09-15T10:01:47.298Z,21.90
2018-09-15T10:04:14.978Z,22.60
2018-09-15T10:06:42.634Z,23.20
2018-09-15T10:09:11.041Z,23.40
2018-09-15T10:11:39.771Z,23.30
2018-09-15T10:14:07.430Z,23.50
2018-09-15T10:16:35.086Z,23.60
2018-09-15T10:19:02.743Z,23.80
2018-09-15T10:21:30.377Z,22.80
2018-09-15T10:23:57.991Z,22.30
2018-09-15T10:26:25.601Z,22.90
2018-09-15T10:28:53.570Z,22.80
2018-09-15T10:31:21.174Z,23.20
2018-09-15T10:33:48.823Z,23.30
2018-09-15T10:36:16.752Z,23.20
2018-09-15T10:38:44.378Z,23.50
2018-09-15T10:41:12.007Z,23.60
2018-09-15T10:43:39.605Z,23.90
2018-09-15T10:46:07.287Z,23.80
2018-09-15T10:48:34.903Z,23.80
2018-09-15T10:51:02.483Z,20.60
2018-09-15T10:53:30.103Z,23.00
2018-09-15T10:55:57.732Z,22.80
2018-09-15T10:58:25.327Z,22.60
2018-09-15T11:00:53.060Z,22.80
2018-09-15T11:03:21.588Z,23.00
2018-09-15T11:05:49.227Z,22.90
2018-09-15T11:08:16.915Z,23.00
2018-09-15T11:10:44.511Z,23.10
2018-09-15T11:13:12.184Z,22.80
2018-09-15T11:15:39.762Z,22.80
2018-09-15T11:18:07.418Z,23.00
2018-09-15T11:20:35.098Z,24.10
2018-09-15T11:23:02.718Z,23.10
2018-09-15T11:25:30.325Z,22.90
2018-09-15T11:27:57.934Z,23.20
2018-09-15T11:30:25.556Z,23.20
2018-09-15T11:32:54.067Z,22.90
2018-09-15T11:35:21.702Z,22.70
2018-09-15T11:37:49.978Z,22.60
2018-09-15T11:40:17.619Z,22.20
2018-09-15T11:42:45.279Z,22.10
2018-09-15T11:45:12.957Z,22.20
2018-09-15T11:47:40.839Z,22.30
2018-09-15T11:50:08.493Z,22.10
2018-09-15T11:52:36.118Z,22.00
2018-09-15T11:55:03.866Z,22.00
2018-09-15T11:57:31.514Z,21.70
2018-09-15T11:59:59.202Z,21.60
2018-09-15T12:02:29.338Z,23.10
2018-09-15T12:04:57.565Z,21.70
2018-09-15T12:07:25.791Z,21.90
2018-09-15T12:09:53.483Z,22.20
2018-09-15T12:12:21.179Z,22.20
2018-09-15T12:14:48.808Z,22.60
2018-09-15T12:17:16.446Z,22.60
2018-09-15T12:19:44.106Z,22.60
2018-09-15T12:22:11.747Z,22.60
2018-09-15T12:24:39.459Z,22.80
2018-09-15T12:27:07.738Z,22.60
2018-09-15T12:29:35.409Z,22.50
2018-09-15T12:32:03.047Z,22.50
2018-09-15T12:34:30.655Z,21.80
2018-09-15T12:36:58.531Z,21.70
2018-09-15T12:39:26.466Z,22.30
2018-09-15T12:41:54.058Z,22.60
2018-09-15T12:44:21.711Z,22.60
2018-09-15T12:46:49.783Z,22.70
2018-09-15T12:49:17.416Z,21.90
2018-09-15T12:51:45.162Z,22.00
2018-09-15T12:54:12.749Z,20.90
2018-09-15T12:56:40.380Z,20.90
2018-09-15T12:59:08.126Z,20.70
2018-09-15T13:01:35.738Z,21.00
2018-09-15T13:04:03.366Z,21.70
2018-09-15T13:06:31.157Z,21.70
2018-09-15T13:08:58.763Z,21.70
2018-09-15T13:11:26.406Z,20.70
2018-09-15T13:13:54.023Z,21.10
2018-09-15T13:16:21.638Z,21.30
2018-09-15T13:18:49.274Z,21.40
2018-09-15T13:21:16.905Z,21.40
2018-09-15T13:23:44.618Z,21.40
2018-09-15T13:26:12.193Z,21.40
2018-09-15T13:28:39.814Z,21.40
2018-09-15T13:31:07.437Z,21.40
2018-09-15T13:33:35.132Z,21.60
2018-09-15T13:36:02.791Z,21.70
2018-09-15T13:38:30.410Z,21.80
2018-09-15T13:40:58.101Z,25.10
2018-09-15T13:43:25.724Z,21.50
2018-09-15T13:45:53.340Z,21.50
2018-09-15T13:48:20.974Z,20.90
2018-09-15T13:50:48.617Z,20.90
2018-09-15T13:53:16.269Z,21.60
2018-09-15T13:55:43.938Z,21.40
2018-09-15T13:58:11.665Z,21.50
2018-09-15T14:00:39.260Z,21.30
2018-09-15T14:03:06.863Z,20.60
2018-09-15T14:05:34.500Z,20.80
2018-09-15T14:08:02.122Z,20.70
2018-09-15T14:10:29.788Z,21.10
2018-09-15T14:12:57.606Z,21.60
2018-09-15T14:15:25.294Z,21.70
2018-09-15T14:17:52.931Z,21.90
2018-09-15T14:20:20.586Z,21.90
2018-09-15T14:22:48.363Z,22.10
2018-09-15T14:25:16.868Z,22.10
2018-09-15T14:27:44.558Z,22.20
2018-09-15T14:30:12.195Z,22.20
2018-09-15T14:32:39.812Z,22.30
2018-09-15T14:35:07.524Z,21.40
2018-09-15T14:37:35.148Z,21.20
2018-09-15T14:42:30.399Z,21.60
2018-09-15T14:44:58.039Z,21.70
2018-09-15T14:47:25.686Z,21.80
2018-09-15T14:49:53.336Z,21.60
2018-09-15T14:52:20.955Z,21.60
2018-09-15T14:54:48.591Z,21.60
2018-09-15T14:57:16.217Z,21.60
2018-09-15T15:02:11.779Z,21.60
2018-09-15T15:04:39.411Z,21.70
2018-09-15T15:07:07.003Z,21.80
2018-09-15T15:09:34.626Z,21.70
2018-09-15T15:12:02.267Z,21.70
2018-09-15T15:14:29.890Z,21.70
2018-09-15T15:16:57.499Z,21.80
2018-09-15T15:21:52.810Z,21.40
2018-09-15T15:24:20.460Z,21.70
2018-09-15T15:29:15.948Z,21.60
2018-09-15T15:31:43.750Z,21.60
2018-09-15T15:34:11.361Z,21.60
2018-09-15T15:36:38.984Z,21.70
2018-09-15T15:41:34.475Z,21.80
2018-09-15T15:44:02.247Z,21.70
2018-09-15T15:46:30.138Z,21.70
2018-09-15T15:48:58.046Z,21.50
2018-09-15T15:51:25.726Z,21.40
2018-09-15T15:53:53.359Z,21.30
2018-09-15T15:56:21.010Z,21.20
2018-09-15T16:03:43.718Z,21.40
2018-09-15T16:06:11.385Z,21.50
2018-09-15T16:08:45.598Z,21.50
2018-09-15T16:11:13.240Z,21.30
2018-09-15T16:13:40.944Z,21.30
2018-09-15T16:16:08.605Z,21.30
2018-09-15T16:18:36.281Z,21.10
2018-09-15T16:21:03.899Z,20.90
2018-09-15T16:23:31.519Z,20.70
2018-09-15T16:30:54.374Z,20.50
2018-09-15T16:33:22.104Z,20.60
2018-09-15T16:35:49.774Z,20.70
2018-09-15T16:38:17.583Z,20.60
2018-09-15T16:40:45.316Z,20.60
2018-09-15T16:43:12.967Z,20.40
2018-09-15T16:48:08.121Z,20.70
2018-09-15T16:50:35.773Z,20.60
2018-09-15T16:53:03.701Z,20.60
2018-09-15T16:55:31.316Z,20.60
2018-09-15T16:57:59.018Z,20.40
2018-09-15T17:00:27.115Z,20.50
2018-09-15T17:02:54.818Z,20.60
2018-09-15T17:10:17.580Z,20.40
2018-09-15T17:12:45.191Z,20.30
2018-09-15T17:17:40.331Z,20.10
2018-09-15T17:22:35.540Z,19.70
2018-09-15T17:25:03.127Z,19.60
2018-09-15T17:32:25.820Z,19.30
2018-09-15T17:34:53.456Z,19.10
2018-09-15T17:42:16.288Z,18.80
2018-09-15T17:52:06.645Z,18.10
2018-09-15T17:54:34.261Z,18.00
2018-09-15T17:57:01.890Z,17.80
2018-09-15T18:06:52.139Z,17.30
2018-09-15T18:09:19.759Z,17.30
2018-09-15T18:11:47.502Z,17.20
2018-09-15T18:14:15.348Z,17.10
2018-09-15T18:16:42.978Z,17.10
2018-09-15T18:19:10.658Z,17.00
2018-09-15T18:21:38.384Z,16.90
2018-09-15T18:24:06.074Z,16.90
2018-09-15T18:26:33.723Z,16.80
2018-09-15T18:29:01.367Z,16.70
2018-09-15T18:31:29.035Z,16.80
2018-09-15T18:33:56.712Z,16.70
2018-09-15T18:36:24.316Z,16.70
2018-09-15T18:38:52.445Z,16.50
2018-09-15T18:41:20.124Z,16.30
2018-09-15T18:43:47.754Z,16.40
2018-09-15T18:46:15.351Z,16.40
2018-09-15T18:48:42.955Z,16.40
2018-09-15T18:51:10.731Z,16.40
2018-09-15T18:53:38.503Z,16.40
2018-09-15T19:01:01.192Z,16.30
2018-09-15T19:03:28.820Z,16.30
2018-09-15T19:05:56.525Z,16.30
2018-09-15T19:10:51.633Z,16.40
2018-09-15T19:15:47.130Z,16.40
2018-09-15T19:18:14.726Z,16.30
2018-09-15T19:20:42.340Z,16.10
2018-09-15T19:23:09.982Z,16.00
2018-09-15T19:25:37.612Z,16.00
2018-09-15T19:28:05.318Z,15.90
2018-09-15T19:33:00.664Z,15.80
2018-09-15T19:35:28.312Z,15.70
2018-09-15T19:40:23.463Z,15.60
2018-09-15T19:42:51.136Z,15.40
2018-09-15T19:45:18.747Z,15.40
2018-09-15T19:47:46.587Z,15.40
2018-09-15T19:52:41.938Z,15.30
2018-09-15T19:55:09.660Z,15.20
2018-09-15T19:57:37.463Z,15.20
2018-09-15T20:00:05.289Z,15.20
2018-09-15T20:02:33.275Z,15.20
2018-09-15T20:05:00.920Z,15.10
2018-09-15T20:07:28.552Z,15.00
2018-09-15T20:09:56.154Z,15.00
2018-09-15T20:12:23.819Z,15.00
2018-09-15T20:14:51.511Z,15.00
2018-09-15T20:17:18.093Z,14.90
2018-09-15T20:19:44.771Z,14.90
2018-09-15T20:22:12.391Z,14.90
2018-09-15T20:27:07.669Z,15.00
2018-09-15T20:29:35.318Z,15.00
2018-09-15T20:32:03.042Z,15.00
2018-09-15T20:34:30.633Z,15.00
2018-09-15T20:36:58.269Z,15.10
2018-09-15T20:39:26.022Z,15.10
2018-09-15T20:41:53.649Z,15.10
2018-09-15T20:46:49.521Z,15.10
2018-09-15T20:49:17.136Z,15.10
2018-09-15T20:51:48.228Z,15.10
2018-09-15T20:54:16.298Z,15.10
2018-09-15T20:56:43.980Z,15.10
2018-09-15T20:59:11.617Z,15.00
2018-09-15T21:01:39.243Z,15.00
2018-09-15T21:04:06.864Z,15.00
2018-09-15T21:06:34.501Z,14.90
2018-09-15T21:09:02.345Z,14.90
2018-09-15T21:11:30.027Z,14.80
2018-09-15T21:13:57.644Z,14.80
2018-09-15T21:16:25.318Z,14.80
2018-09-15T21:18:53.069Z,14.80
2018-09-15T21:21:20.768Z,14.80
2018-09-15T21:23:48.471Z,14.70
2018-09-15T21:26:16.262Z,14.70
2018-09-15T21:28:43.883Z,14.70
2018-09-15T21:31:11.497Z,14.60
2018-09-15T21:33:39.122Z,14.60
2018-09-15T21:36:06.758Z,14.50
2018-09-15T21:38:34.452Z,14.50
2018-09-15T21:41:02.054Z,14.50
2018-09-15T21:43:29.717Z,14.40
2018-09-15T21:45:57.351Z,14.40
2018-09-15T21:48:24.994Z,14.40
2018-09-15T21:50:52.650Z,14.30
2018-09-15T21:53:20.301Z,14.30
2018-09-15T21:55:47.921Z,14.30
2018-09-15T21:58:15.581Z,14.20
2018-09-15T22:03:10.774Z,14.10
2018-09-15T22:05:38.449Z,14.20
2018-09-15T22:08:06.103Z,14.20
2018-09-15T22:13:01.402Z,14.20
2018-09-15T22:15:29.162Z,14.20
2018-09-15T22:17:58.061Z,14.20
2018-09-15T22:20:25.888Z,14.20
2018-09-15T22:22:53.578Z,14.20
2018-09-15T22:25:21.245Z,14.10
2018-09-15T22:27:49.180Z,14.10
2018-09-15T22:30:16.840Z,14.20
2018-09-15T22:32:44.550Z,14.10
2018-09-15T22:37:39.759Z,14.10
2018-09-15T22:40:07.486Z,14.10
2018-09-15T22:42:35.122Z,14.00
2018-09-15T22:45:02.885Z,14.00
2018-09-15T22:47:30.514Z,14.00
2018-09-15T22:57:20.957Z,13.90
2018-09-15T22:59:48.631Z,13.90
2018-09-15T23:02:16.488Z,13.90
2018-09-15T23:04:44.159Z,13.90
2018-09-15T23:07:11.783Z,13.90
2018-09-15T23:14:34.495Z,13.80
2018-09-15T23:19:29.708Z,13.80
2018-09-15T23:21:57.365Z,13.70
2018-09-15T23:24:25.010Z,13.70
2018-09-15T23:29:20.232Z,13.70
2018-09-15T23:31:47.923Z,13.70
2018-09-15T23:34:15.578Z,13.60
2018-09-15T23:39:10.811Z,13.60
2018-09-15T23:41:38.466Z,13.50
2018-09-15T23:44:06.130Z,13.40
2018-09-15T23:46:33.801Z,13.50
2018-09-15T23:49:01.563Z,13.50
2018-09-15T23:51:29.189Z,13.40
2018-09-15T23:53:56.908Z,13.40
2018-09-15T23:56:25.372Z,13.40
2018-09-15T23:58:53.162Z,13.50
